sensor_id;sensor_type;location;lat;lon;timestamp;P1;durP1;ratioP1;P2;durP2;ratioP2
29280;SDS011;25048;49.590;11.026;2022-10-22T00:02:23;12.57;;;7.87;;
29280;SDS011;25048;49.590;11.026;2022-10-22T00:04:52;13.40;;;7.80;;
29280;SDS011;25048;49.590;11.026;2022-10-22T00:07:21;18.63;;;8.23;;
29280;SDS011;25048;49.590;11.026;2022-10-22T00:09:49;13.60;;;7.57;;
29280;SDS011;25048;49.590;11.026;2022-10-22T00:12:17;12.13;;;7.90;;
29280;SDS011;25048;49.590;11.026;2022-10-22T00:14:45;15.57;;;8.97;;
29280;SDS011;25048;49.590;11.026;2022-10-22T00:17:13;15.10;;;8.50;;
29280;SDS011;25048;49.590;11.026;2022-10-22T00:19:41;12.07;;;7.37;;
29280;SDS011;25048;49.590;11.026;2022-10-22T00:22:09;12.47;;;7.20;;
29280;SDS011;25048;49.590;11.026;2022-10-22T00:24:38;12.30;;;7.37;;
29280;SDS011;25048;49.590;11.026;2022-10-22T00:27:06;12.43;;;7.43;;
29280;SDS011;25048;49.590;11.026;2022-10-22T00:29:35;14.00;;;7.63;;
29280;SDS011;25048;49.590;11.026;2022-10-22T00:32:03;11.97;;;7.73;;
29280;SDS011;25048;49.590;11.026;2022-10-22T00:34:32;12.60;;;7.10;;
29280;SDS011;25048;49.590;11.026;2022-10-22T00:36:59;15.00;;;7.43;;
29280;SDS011;25048;49.590;11.026;2022-10-22T00:39:27;12.20;;;7.10;;
29280;SDS011;25048;49.590;11.026;2022-10-22T00:41:55;15.10;;;7.33;;
29280;SDS011;25048;49.590;11.026;2022-10-22T00:47:27;17.43;;;7.30;;
29280;SDS011;25048;49.590;11.026;2022-10-22T00:49:59;14.10;;;7.87;;
29280;SDS011;25048;49.590;11.026;2022-10-22T00:52:29;10.63;;;7.90;;
29280;SDS011;25048;49.590;11.026;2022-10-22T00:54:56;10.60;;;7.30;;
29280;SDS011;25048;49.590;11.026;2022-10-22T00:57:24;14.57;;;7.90;;
29280;SDS011;25048;49.590;11.026;2022-10-22T00:59:51;12.53;;;7.37;;
29280;SDS011;25048;49.590;11.026;2022-10-22T01:02:21;9.03;;;7.13;;
29280;SDS011;25048;49.590;11.026;2022-10-22T01:04:49;9.90;;;7.03;;
29280;SDS011;25048;49.590;11.026;2022-10-22T01:07:17;13.30;;;7.60;;
29280;SDS011;25048;49.590;11.026;2022-10-22T01:18:44;15.07;;;7.07;;
29280;SDS011;25048;49.590;11.026;2022-10-22T01:20:58;15.53;;;6.67;;
29280;SDS011;25048;49.590;11.026;2022-10-22T01:23:37;13.70;;;8.03;;
29280;SDS011;25048;49.590;11.026;2022-10-22T01:26:32;23.63;;;10.87;;
29280;SDS011;25048;49.590;11.026;2022-10-22T01:29:21;17.87;;;10.10;;
29280;SDS011;25048;49.590;11.026;2022-10-22T01:31:57;17.20;;;9.40;;
29280;SDS011;25048;49.590;11.026;2022-10-22T01:34:32;12.03;;;7.80;;
29280;SDS011;25048;49.590;11.026;2022-10-22T01:37:01;14.37;;;6.53;;
29280;SDS011;25048;49.590;11.026;2022-10-22T01:39:30;12.90;;;7.10;;
29280;SDS011;25048;49.590;11.026;2022-10-22T01:41:59;14.53;;;7.57;;
29280;SDS011;25048;49.590;11.026;2022-10-22T01:44:30;18.07;;;7.40;;
29280;SDS011;25048;49.590;11.026;2022-10-22T01:50:14;8.30;;;5.70;;
29280;SDS011;25048;49.590;11.026;2022-10-22T01:52:53;15.40;;;6.20;;
29280;SDS011;25048;49.590;11.026;2022-10-22T01:55:31;10.20;;;6.40;;
29280;SDS011;25048;49.590;11.026;2022-10-22T01:58:20;12.20;;;6.87;;
29280;SDS011;25048;49.590;11.026;2022-10-22T02:00:50;12.20;;;6.17;;
29280;SDS011;25048;49.590;11.026;2022-10-22T02:03:30;10.40;;;6.30;;
29280;SDS011;25048;49.590;11.026;2022-10-22T02:06:03;14.57;;;6.30;;
29280;SDS011;25048;49.590;11.026;2022-10-22T02:08:33;14.00;;;5.93;;
29280;SDS011;25048;49.590;11.026;2022-10-22T02:11:02;15.20;;;5.80;;
29280;SDS011;25048;49.590;11.026;2022-10-22T02:13:40;9.10;;;5.70;;
29280;SDS011;25048;49.590;11.026;2022-10-22T02:16:05;16.23;;;5.17;;
29280;SDS011;25048;49.590;11.026;2022-10-22T02:18:36;16.20;;;5.08;;
29280;SDS011;25048;49.590;11.026;2022-10-22T02:21:06;10.40;;;5.97;;
29280;SDS011;25048;49.590;11.026;2022-10-22T02:23:34;11.53;;;4.93;;
29280;SDS011;25048;49.590;11.026;2022-10-22T02:26:08;9.17;;;5.30;;
29280;SDS011;25048;49.590;11.026;2022-10-22T02:28:43;8.60;;;5.03;;
29280;SDS011;25048;49.590;11.026;2022-10-22T02:31:15;10.23;;;5.17;;
29280;SDS011;25048;49.590;11.026;2022-10-22T02:33:44;10.53;;;4.90;;
29280;SDS011;25048;49.590;11.026;2022-10-22T02:36:14;5.87;;;4.20;;
29280;SDS011;25048;49.590;11.026;2022-10-22T02:38:43;10.00;;;4.70;;
29280;SDS011;25048;49.590;11.026;2022-10-22T02:41:13;7.57;;;4.83;;
29280;SDS011;25048;49.590;11.026;2022-10-22T02:43:42;10.83;;;4.57;;
29280;SDS011;25048;49.590;11.026;2022-10-22T02:46:12;10.33;;;4.80;;
29280;SDS011;25048;49.590;11.026;2022-10-22T02:48:39;8.73;;;4.67;;
29280;SDS011;25048;49.590;11.026;2022-10-22T02:51:07;9.80;;;4.70;;
29280;SDS011;25048;49.590;11.026;2022-10-22T02:53:34;9.77;;;5.20;;
29280;SDS011;25048;49.590;11.026;2022-10-22T02:56:02;7.50;;;4.20;;
29280;SDS011;25048;49.590;11.026;2022-10-22T02:58:30;8.77;;;4.43;;
29280;SDS011;25048;49.590;11.026;2022-10-22T03:00:57;8.17;;;5.00;;
29280;SDS011;25048;49.590;11.026;2022-10-22T03:03:24;7.07;;;4.83;;
29280;SDS011;25048;49.590;11.026;2022-10-22T03:05:52;9.03;;;5.50;;
29280;SDS011;25048;49.590;11.026;2022-10-22T03:08:19;13.27;;;5.57;;
29280;SDS011;25048;49.590;11.026;2022-10-22T03:10:47;13.07;;;5.30;;
29280;SDS011;25048;49.590;11.026;2022-10-22T03:13:14;9.47;;;4.57;;
29280;SDS011;25048;49.590;11.026;2022-10-22T03:15:42;8.07;;;6.20;;
29280;SDS011;25048;49.590;11.026;2022-10-22T03:18:09;11.83;;;7.10;;
29280;SDS011;25048;49.590;11.026;2022-10-22T03:20:37;8.17;;;5.20;;
29280;SDS011;25048;49.590;11.026;2022-10-22T03:23:05;10.70;;;5.00;;
29280;SDS011;25048;49.590;11.026;2022-10-22T03:25:32;8.70;;;4.50;;
29280;SDS011;25048;49.590;11.026;2022-10-22T03:28:02;11.87;;;4.23;;
29280;SDS011;25048;49.590;11.026;2022-10-22T03:30:31;9.93;;;4.70;;
29280;SDS011;25048;49.590;11.026;2022-10-22T03:35:46;5.03;;;3.93;;
29280;SDS011;25048;49.590;11.026;2022-10-22T03:38:14;8.10;;;4.40;;
29280;SDS011;25048;49.590;11.026;2022-10-22T03:40:42;13.07;;;4.07;;
29280;SDS011;25048;49.590;11.026;2022-10-22T03:43:11;5.03;;;3.50;;
29280;SDS011;25048;49.590;11.026;2022-10-22T03:45:39;8.53;;;3.63;;
29280;SDS011;25048;49.590;11.026;2022-10-22T03:48:07;6.10;;;3.20;;
29280;SDS011;25048;49.590;11.026;2022-10-22T03:50:34;5.30;;;3.10;;
29280;SDS011;25048;49.590;11.026;2022-10-22T03:53:02;4.27;;;2.90;;
29280;SDS011;25048;49.590;11.026;2022-10-22T03:55:31;7.03;;;2.20;;
29280;SDS011;25048;49.590;11.026;2022-10-22T03:57:59;5.77;;;2.33;;
29280;SDS011;25048;49.590;11.026;2022-10-22T04:00:27;5.70;;;3.17;;
29280;SDS011;25048;49.590;11.026;2022-10-22T04:02:54;5.27;;;2.60;;
29280;SDS011;25048;49.590;11.026;2022-10-22T04:05:22;9.80;;;3.00;;
29280;SDS011;25048;49.590;11.026;2022-10-22T04:07:50;7.97;;;2.70;;
29280;SDS011;25048;49.590;11.026;2022-10-22T04:10:17;5.23;;;2.57;;
29280;SDS011;25048;49.590;11.026;2022-10-22T04:12:48;4.87;;;2.50;;
29280;SDS011;25048;49.590;11.026;2022-10-22T04:15:15;3.60;;;2.80;;
29280;SDS011;25048;49.590;11.026;2022-10-22T04:17:43;6.80;;;2.93;;
29280;SDS011;25048;49.590;11.026;2022-10-22T04:20:11;8.17;;;3.27;;
29280;SDS011;25048;49.590;11.026;2022-10-22T04:22:38;5.53;;;3.07;;
29280;SDS011;25048;49.590;11.026;2022-10-22T04:25:06;6.03;;;3.87;;
29280;SDS011;25048;49.590;11.026;2022-10-22T04:27:34;5.13;;;2.97;;
29280;SDS011;25048;49.590;11.026;2022-10-22T04:30:03;11.90;;;3.20;;
29280;SDS011;25048;49.590;11.026;2022-10-22T04:32:31;4.40;;;3.30;;
29280;SDS011;25048;49.590;11.026;2022-10-22T04:34:59;3.97;;;2.73;;
29280;SDS011;25048;49.590;11.026;2022-10-22T04:37:26;7.17;;;2.77;;
29280;SDS011;25048;49.590;11.026;2022-10-22T04:39:54;4.63;;;2.30;;
29280;SDS011;25048;49.590;11.026;2022-10-22T04:42:21;3.13;;;2.03;;
29280;SDS011;25048;49.590;11.026;2022-10-22T04:44:49;7.73;;;2.77;;
29280;SDS011;25048;49.590;11.026;2022-10-22T04:47:16;2.97;;;1.77;;
29280;SDS011;25048;49.590;11.026;2022-10-22T04:49:44;2.93;;;2.37;;
29280;SDS011;25048;49.590;11.026;2022-10-22T04:52:11;3.03;;;2.17;;
29280;SDS011;25048;49.590;11.026;2022-10-22T04:54:39;3.27;;;2.03;;
29280;SDS011;25048;49.590;11.026;2022-10-22T04:57:06;7.03;;;2.70;;
29280;SDS011;25048;49.590;11.026;2022-10-22T04:59:34;5.30;;;2.10;;
29280;SDS011;25048;49.590;11.026;2022-10-22T05:02:01;4.47;;;2.60;;
29280;SDS011;25048;49.590;11.026;2022-10-22T05:04:28;5.10;;;1.97;;
29280;SDS011;25048;49.590;11.026;2022-10-22T05:06:56;3.03;;;2.00;;
29280;SDS011;25048;49.590;11.026;2022-10-22T05:09:24;2.70;;;2.13;;
29280;SDS011;25048;49.590;11.026;2022-10-22T05:11:52;4.23;;;2.40;;
29280;SDS011;25048;49.590;11.026;2022-10-22T05:14:21;3.30;;;2.07;;
29280;SDS011;25048;49.590;11.026;2022-10-22T05:16:50;4.40;;;2.10;;
29280;SDS011;25048;49.590;11.026;2022-10-22T05:19:20;7.50;;;2.77;;
29280;SDS011;25048;49.590;11.026;2022-10-22T05:21:49;8.67;;;2.73;;
29280;SDS011;25048;49.590;11.026;2022-10-22T05:24:17;6.50;;;4.10;;
29280;SDS011;25048;49.590;11.026;2022-10-22T05:26:47;8.07;;;3.53;;
29280;SDS011;25048;49.590;11.026;2022-10-22T05:29:15;4.83;;;3.03;;
29280;SDS011;25048;49.590;11.026;2022-10-22T05:31:43;7.63;;;2.83;;
29280;SDS011;25048;49.590;11.026;2022-10-22T05:34:11;4.67;;;2.97;;
29280;SDS011;25048;49.590;11.026;2022-10-22T05:36:39;3.37;;;2.37;;
29280;SDS011;25048;49.590;11.026;2022-10-22T05:39:07;3.33;;;2.00;;
29280;SDS011;25048;49.590;11.026;2022-10-22T05:41:34;6.73;;;2.60;;
29280;SDS011;25048;49.590;11.026;2022-10-22T05:44:02;3.37;;;1.93;;
29280;SDS011;25048;49.590;11.026;2022-10-22T05:46:32;5.13;;;2.40;;
29280;SDS011;25048;49.590;11.026;2022-10-22T05:49:01;4.30;;;2.80;;
29280;SDS011;25048;49.590;11.026;2022-10-22T05:51:31;5.07;;;2.47;;
29280;SDS011;25048;49.590;11.026;2022-10-22T05:54:01;6.03;;;3.03;;
29280;SDS011;25048;49.590;11.026;2022-10-22T05:56:31;4.43;;;3.00;;
29280;SDS011;25048;49.590;11.026;2022-10-22T05:58:59;4.27;;;2.50;;
29280;SDS011;25048;49.590;11.026;2022-10-22T06:01:28;7.50;;;3.00;;
29280;SDS011;25048;49.590;11.026;2022-10-22T06:03:57;5.80;;;2.97;;
29280;SDS011;25048;49.590;11.026;2022-10-22T06:06:33;4.77;;;3.20;;
29280;SDS011;25048;49.590;11.026;2022-10-22T06:09:12;8.07;;;3.70;;
29280;SDS011;25048;49.590;11.026;2022-10-22T06:11:39;6.73;;;3.53;;
29280;SDS011;25048;49.590;11.026;2022-10-22T06:14:06;6.13;;;3.90;;
29280;SDS011;25048;49.590;11.026;2022-10-22T06:16:35;8.20;;;3.63;;
29280;SDS011;25048;49.590;11.026;2022-10-22T06:19:03;6.73;;;3.90;;
29280;SDS011;25048;49.590;11.026;2022-10-22T06:21:30;5.13;;;3.17;;
29280;SDS011;25048;49.590;11.026;2022-10-22T06:23:59;5.37;;;3.70;;
29280;SDS011;25048;49.590;11.026;2022-10-22T06:26:27;7.17;;;3.80;;
29280;SDS011;25048;49.590;11.026;2022-10-22T06:28:55;5.37;;;4.10;;
29280;SDS011;25048;49.590;11.026;2022-10-22T06:31:24;6.80;;;4.00;;
29280;SDS011;25048;49.590;11.026;2022-10-22T06:33:53;4.23;;;3.50;;
29280;SDS011;25048;49.590;11.026;2022-10-22T06:36:23;5.67;;;4.27;;
29280;SDS011;25048;49.590;11.026;2022-10-22T06:38:51;7.27;;;4.30;;
29280;SDS011;25048;49.590;11.026;2022-10-22T06:41:19;4.90;;;4.00;;
29280;SDS011;25048;49.590;11.026;2022-10-22T06:43:47;4.23;;;3.30;;
29280;SDS011;25048;49.590;11.026;2022-10-22T06:46:16;4.33;;;3.47;;
29280;SDS011;25048;49.590;11.026;2022-10-22T06:48:49;7.30;;;3.90;;
29280;SDS011;25048;49.590;11.026;2022-10-22T06:51:18;3.50;;;2.90;;
29280;SDS011;25048;49.590;11.026;2022-10-22T06:53:46;4.70;;;3.37;;
29280;SDS011;25048;49.590;11.026;2022-10-22T06:56:16;6.37;;;3.33;;
29280;SDS011;25048;49.590;11.026;2022-10-22T06:58:52;5.57;;;3.50;;
29280;SDS011;25048;49.590;11.026;2022-10-22T07:01:21;5.30;;;3.53;;
29280;SDS011;25048;49.590;11.026;2022-10-22T07:03:51;4.17;;;3.10;;
29280;SDS011;25048;49.590;11.026;2022-10-22T07:06:19;4.20;;;3.10;;
29280;SDS011;25048;49.590;11.026;2022-10-22T07:08:47;5.30;;;3.10;;
29280;SDS011;25048;49.590;11.026;2022-10-22T07:11:16;5.57;;;3.40;;
29280;SDS011;25048;49.590;11.026;2022-10-22T07:13:45;6.67;;;3.60;;
29280;SDS011;25048;49.590;11.026;2022-10-22T07:16:13;5.77;;;3.47;;
29280;SDS011;25048;49.590;11.026;2022-10-22T07:18:42;5.83;;;3.67;;
29280;SDS011;25048;49.590;11.026;2022-10-22T07:21:10;5.10;;;3.60;;
29280;SDS011;25048;49.590;11.026;2022-10-22T07:23:39;5.87;;;4.10;;
29280;SDS011;25048;49.590;11.026;2022-10-22T07:26:07;12.80;;;4.67;;
29280;SDS011;25048;49.590;11.026;2022-10-22T07:28:35;6.27;;;4.40;;
29280;SDS011;25048;49.590;11.026;2022-10-22T07:31:05;5.57;;;3.93;;
29280;SDS011;25048;49.590;11.026;2022-10-22T07:33:34;9.27;;;4.43;;
29280;SDS011;25048;49.590;11.026;2022-10-22T07:36:03;10.57;;;4.93;;
29280;SDS011;25048;49.590;11.026;2022-10-22T07:38:32;7.10;;;3.50;;
29280;SDS011;25048;49.590;11.026;2022-10-22T07:41:00;5.33;;;3.50;;
29280;SDS011;25048;49.590;11.026;2022-10-22T07:43:28;14.23;;;5.43;;
29280;SDS011;25048;49.590;11.026;2022-10-22T07:45:56;4.93;;;3.70;;
29280;SDS011;25048;49.590;11.026;2022-10-22T07:48:25;4.33;;;3.23;;
29280;SDS011;25048;49.590;11.026;2022-10-22T07:50:52;4.90;;;3.00;;
29280;SDS011;25048;49.590;11.026;2022-10-22T07:53:21;2.90;;;2.27;;
29280;SDS011;25048;49.590;11.026;2022-10-22T07:55:49;4.47;;;2.87;;
29280;SDS011;25048;49.590;11.026;2022-10-22T07:58:17;4.53;;;2.40;;
29280;SDS011;25048;49.590;11.026;2022-10-22T08:00:46;7.10;;;2.60;;
29280;SDS011;25048;49.590;11.026;2022-10-22T08:03:15;7.40;;;2.60;;
29280;SDS011;25048;49.590;11.026;2022-10-22T08:05:44;8.80;;;2.60;;
29280;SDS011;25048;49.590;11.026;2022-10-22T08:08:12;3.63;;;2.30;;
29280;SDS011;25048;49.590;11.026;2022-10-22T08:10:41;4.63;;;2.17;;
29280;SDS011;25048;49.590;11.026;2022-10-22T08:13:09;4.05;;;2.02;;
29280;SDS011;25048;49.590;11.026;2022-10-22T08:15:37;3.47;;;2.13;;
29280;SDS011;25048;49.590;11.026;2022-10-22T08:18:04;9.40;;;2.20;;
29280;SDS011;25048;49.590;11.026;2022-10-22T08:20:32;3.80;;;1.60;;
29280;SDS011;25048;49.590;11.026;2022-10-22T08:22:59;4.20;;;1.93;;
29280;SDS011;25048;49.590;11.026;2022-10-22T08:25:27;9.40;;;1.80;;
29280;SDS011;25048;49.590;11.026;2022-10-22T08:27:54;2.80;;;1.67;;
29280;SDS011;25048;49.590;11.026;2022-10-22T08:30:22;8.00;;;2.00;;
29280;SDS011;25048;49.590;11.026;2022-10-22T08:32:51;2.77;;;2.00;;
29280;SDS011;25048;49.590;11.026;2022-10-22T08:35:19;2.43;;;1.87;;
29280;SDS011;25048;49.590;11.026;2022-10-22T08:37:46;5.37;;;1.70;;
29280;SDS011;25048;49.590;11.026;2022-10-22T08:40:18;3.25;;;2.12;;
29280;SDS011;25048;49.590;11.026;2022-10-22T08:45:34;3.27;;;2.40;;
29280;SDS011;25048;49.590;11.026;2022-10-22T08:48:40;3.03;;;1.53;;
29280;SDS011;25048;49.590;11.026;2022-10-22T08:51:20;2.10;;;1.40;;
29280;SDS011;25048;49.590;11.026;2022-10-22T08:56:29;2.35;;;1.30;;
29280;SDS011;25048;49.590;11.026;2022-10-22T08:59:03;2.97;;;1.60;;
29280;SDS011;25048;49.590;11.026;2022-10-22T09:01:38;4.40;;;1.35;;
29280;SDS011;25048;49.590;11.026;2022-10-22T09:04:30;2.50;;;1.40;;
29280;SDS011;25048;49.590;11.026;2022-10-22T09:07:00;3.67;;;1.32;;
29280;SDS011;25048;49.590;11.026;2022-10-22T09:09:31;3.52;;;1.00;;
29280;SDS011;25048;49.590;11.026;2022-10-22T09:12:04;4.05;;;1.15;;
29280;SDS011;25048;49.590;11.026;2022-10-22T09:14:31;8.88;;;0.95;;
29280;SDS011;25048;49.590;11.026;2022-10-22T09:19:42;4.72;;;1.20;;
29280;SDS011;25048;49.590;11.026;2022-10-22T09:27:41;2.65;;;1.02;;
29280;SDS011;25048;49.590;11.026;2022-10-22T09:30:17;1.92;;;0.90;;
29280;SDS011;25048;49.590;11.026;2022-10-22T09:33:05;1.90;;;0.98;;
29280;SDS011;25048;49.590;11.026;2022-10-22T09:35:57;2.50;;;1.37;;
29280;SDS011;25048;49.590;11.026;2022-10-22T09:38:14;1.70;;;1.07;;
29280;SDS011;25048;49.590;11.026;2022-10-22T09:40:44;2.08;;;1.12;;
29280;SDS011;25048;49.590;11.026;2022-10-22T09:43:14;1.85;;;0.80;;
29280;SDS011;25048;49.590;11.026;2022-10-22T09:45:42;4.22;;;1.30;;
29280;SDS011;25048;49.590;11.026;2022-10-22T09:48:21;2.05;;;0.95;;
29280;SDS011;25048;49.590;11.026;2022-10-22T09:51:05;2.15;;;0.90;;
29280;SDS011;25048;49.590;11.026;2022-10-22T09:54:12;1.67;;;0.68;;
29280;SDS011;25048;49.590;11.026;2022-10-22T09:56:16;2.17;;;0.90;;
29280;SDS011;25048;49.590;11.026;2022-10-22T09:58:46;0.70;;;0.70;;
29280;SDS011;25048;49.590;11.026;2022-10-22T10:01:18;1.32;;;0.80;;
29280;SDS011;25048;49.590;11.026;2022-10-22T10:03:47;1.60;;;0.75;;
29280;SDS011;25048;49.590;11.026;2022-10-22T10:06:19;1.67;;;0.85;;
29280;SDS011;25048;49.590;11.026;2022-10-22T10:08:48;4.72;;;0.90;;
29280;SDS011;25048;49.590;11.026;2022-10-22T10:11:29;1.27;;;0.60;;
29280;SDS011;25048;49.590;11.026;2022-10-22T10:14:10;3.00;;;1.17;;
29280;SDS011;25048;49.590;11.026;2022-10-22T10:16:46;3.00;;;0.53;;
29280;SDS011;25048;49.590;11.026;2022-10-22T10:27:37;0.57;;;0.47;;
29280;SDS011;25048;49.590;11.026;2022-10-22T10:30:10;2.08;;;0.70;;
29280;SDS011;25048;49.590;11.026;2022-10-22T10:35:42;1.32;;;0.62;;
29280;SDS011;25048;49.590;11.026;2022-10-22T10:38:36;2.85;;;0.75;;
29280;SDS011;25048;49.590;11.026;2022-10-22T10:41:24;3.05;;;0.85;;
29280;SDS011;25048;49.590;11.026;2022-10-22T10:44:16;2.85;;;0.90;;
29280;SDS011;25048;49.590;11.026;2022-10-22T10:46:44;3.15;;;0.72;;
29280;SDS011;25048;49.590;11.026;2022-10-22T10:51:56;1.95;;;0.50;;
29280;SDS011;25048;49.590;11.026;2022-10-22T11:00:15;4.45;;;0.78;;
29280;SDS011;25048;49.590;11.026;2022-10-22T11:05:56;1.35;;;0.60;;
29280;SDS011;25048;49.590;11.026;2022-10-22T11:08:29;1.05;;;0.60;;
29280;SDS011;25048;49.590;11.026;2022-10-22T11:11:10;1.15;;;0.60;;
29280;SDS011;25048;49.590;11.026;2022-10-22T11:13:42;2.08;;;0.70;;
29280;SDS011;25048;49.590;11.026;2022-10-22T11:19:19;3.12;;;0.53;;
29280;SDS011;25048;49.590;11.026;2022-10-22T11:22:00;1.77;;;0.60;;
29280;SDS011;25048;49.590;11.026;2022-10-22T11:24:39;2.47;;;0.60;;
29280;SDS011;25048;49.590;11.026;2022-10-22T11:29:39;3.62;;;0.75;;
29280;SDS011;25048;49.590;11.026;2022-10-22T11:32:13;1.70;;;0.57;;
29280;SDS011;25048;49.590;11.026;2022-10-22T11:34:44;2.67;;;0.80;;
29280;SDS011;25048;49.590;11.026;2022-10-22T11:37:16;1.12;;;0.60;;
29280;SDS011;25048;49.590;11.026;2022-10-22T11:39:53;0.65;;;0.60;;
29280;SDS011;25048;49.590;11.026;2022-10-22T11:42:36;2.83;;;0.50;;
29280;SDS011;25048;49.590;11.026;2022-10-22T12:03:40;5.97;;;0.60;;
29280;SDS011;25048;49.590;11.026;2022-10-22T12:06:24;2.00;;;1.17;;
29280;SDS011;25048;49.590;11.026;2022-10-22T12:11:24;1.98;;;0.78;;
29280;SDS011;25048;49.590;11.026;2022-10-22T12:16:44;3.70;;;0.85;;
29280;SDS011;25048;49.590;11.026;2022-10-22T12:19:25;2.87;;;1.10;;
29280;SDS011;25048;49.590;11.026;2022-10-22T12:21:50;0.78;;;0.70;;
29280;SDS011;25048;49.590;11.026;2022-10-22T12:24:21;1.30;;;0.70;;
29280;SDS011;25048;49.590;11.026;2022-10-22T12:26:50;1.92;;;0.80;;
29280;SDS011;25048;49.590;11.026;2022-10-22T12:29:19;3.45;;;1.42;;
29280;SDS011;25048;49.590;11.026;2022-10-22T12:31:48;0.90;;;0.57;;
29280;SDS011;25048;49.590;11.026;2022-10-22T12:34:23;3.52;;;0.70;;
29280;SDS011;25048;49.590;11.026;2022-10-22T12:36:51;1.75;;;0.80;;
29280;SDS011;25048;49.590;11.026;2022-10-22T12:39:20;2.10;;;0.80;;
29280;SDS011;25048;49.590;11.026;2022-10-22T12:41:49;1.02;;;0.60;;
29280;SDS011;25048;49.590;11.026;2022-10-22T12:44:19;1.55;;;0.60;;
29280;SDS011;25048;49.590;11.026;2022-10-22T12:46:47;1.95;;;0.78;;
29280;SDS011;25048;49.590;11.026;2022-10-22T12:49:16;1.50;;;0.68;;
29280;SDS011;25048;49.590;11.026;2022-10-22T12:51:47;0.95;;;0.68;;
29280;SDS011;25048;49.590;11.026;2022-10-22T12:54:23;1.42;;;0.50;;
29280;SDS011;25048;49.590;11.026;2022-10-22T12:56:48;4.17;;;0.60;;
29280;SDS011;25048;49.590;11.026;2022-10-22T12:59:19;3.30;;;0.50;;
29280;SDS011;25048;49.590;11.026;2022-10-22T13:01:53;3.40;;;0.40;;
29280;SDS011;25048;49.590;11.026;2022-10-22T13:04:30;1.02;;;0.60;;
29280;SDS011;25048;49.590;11.026;2022-10-22T13:09:56;2.15;;;0.42;;
29280;SDS011;25048;49.590;11.026;2022-10-22T13:12:26;2.58;;;0.80;;
29280;SDS011;25048;49.590;11.026;2022-10-22T13:14:56;4.15;;;0.60;;
29280;SDS011;25048;49.590;11.026;2022-10-22T13:17:38;1.12;;;0.70;;
29280;SDS011;25048;49.590;11.026;2022-10-22T13:20:25;0.72;;;0.60;;
29280;SDS011;25048;49.590;11.026;2022-10-22T13:25:34;1.95;;;0.50;;
29280;SDS011;25048;49.590;11.026;2022-10-22T13:28:17;2.42;;;0.60;;
29280;SDS011;25048;49.590;11.026;2022-10-22T13:31:00;3.50;;;0.82;;
29280;SDS011;25048;49.590;11.026;2022-10-22T13:33:29;1.52;;;0.60;;
29280;SDS011;25048;49.590;11.026;2022-10-22T13:36:02;0.65;;;0.50;;
29280;SDS011;25048;49.590;11.026;2022-10-22T13:38:30;0.50;;;0.40;;
29280;SDS011;25048;49.590;11.026;2022-10-22T13:40:58;1.45;;;0.50;;
29280;SDS011;25048;49.590;11.026;2022-10-22T13:43:27;1.02;;;0.60;;
29280;SDS011;25048;49.590;11.026;2022-10-22T13:45:56;3.33;;;0.80;;
29280;SDS011;25048;49.590;11.026;2022-10-22T13:48:25;2.02;;;0.70;;
29280;SDS011;25048;49.590;11.026;2022-10-22T13:50:55;2.10;;;1.22;;
29280;SDS011;25048;49.590;11.026;2022-10-22T13:53:24;6.53;;;0.75;;
29280;SDS011;25048;49.590;11.026;2022-10-22T13:55:53;1.30;;;0.60;;
29280;SDS011;25048;49.590;11.026;2022-10-22T13:58:21;1.07;;;0.40;;
29280;SDS011;25048;49.590;11.026;2022-10-22T14:00:57;1.65;;;0.50;;
29280;SDS011;25048;49.590;11.026;2022-10-22T14:03:28;0.50;;;0.50;;
29280;SDS011;25048;49.590;11.026;2022-10-22T14:05:57;1.27;;;0.40;;
29280;SDS011;25048;49.590;11.026;2022-10-22T14:08:26;1.10;;;0.40;;
29280;SDS011;25048;49.590;11.026;2022-10-22T14:10:53;1.75;;;0.60;;
29280;SDS011;25048;49.590;11.026;2022-10-22T14:13:21;6.22;;;0.80;;
29280;SDS011;25048;49.590;11.026;2022-10-22T14:15:49;1.85;;;1.07;;
29280;SDS011;25048;49.590;11.026;2022-10-22T14:18:22;1.95;;;0.45;;
29280;SDS011;25048;49.590;11.026;2022-10-22T14:20:54;0.47;;;0.40;;
29280;SDS011;25048;49.590;11.026;2022-10-22T14:23:26;3.35;;;0.53;;
29280;SDS011;25048;49.590;11.026;2022-10-22T14:25:54;2.75;;;0.50;;
29280;SDS011;25048;49.590;11.026;2022-10-22T14:28:22;1.55;;;0.45;;
29280;SDS011;25048;49.590;11.026;2022-10-22T14:30:50;4.22;;;0.93;;
29280;SDS011;25048;49.590;11.026;2022-10-22T14:33:23;0.80;;;0.53;;
29280;SDS011;25048;49.590;11.026;2022-10-22T14:35:48;2.00;;;0.50;;
29280;SDS011;25048;49.590;11.026;2022-10-22T14:38:17;4.20;;;0.57;;
29280;SDS011;25048;49.590;11.026;2022-10-22T14:40:45;2.30;;;0.70;;
29280;SDS011;25048;49.590;11.026;2022-10-22T14:43:21;1.35;;;0.50;;
29280;SDS011;25048;49.590;11.026;2022-10-22T14:45:53;0.42;;;0.40;;
29280;SDS011;25048;49.590;11.026;2022-10-22T14:48:21;2.35;;;0.50;;
29280;SDS011;25048;49.590;11.026;2022-10-22T14:50:49;1.15;;;0.50;;
29280;SDS011;25048;49.590;11.026;2022-10-22T14:53:16;0.60;;;0.50;;
29280;SDS011;25048;49.590;11.026;2022-10-22T14:55:44;1.32;;;0.40;;
29280;SDS011;25048;49.590;11.026;2022-10-22T14:58:13;0.78;;;0.55;;
29280;SDS011;25048;49.590;11.026;2022-10-22T15:00:42;1.85;;;0.50;;
29280;SDS011;25048;49.590;11.026;2022-10-22T15:03:09;1.27;;;0.50;;
29280;SDS011;25048;49.590;11.026;2022-10-22T15:05:41;1.57;;;0.75;;
29280;SDS011;25048;49.590;11.026;2022-10-22T15:08:10;2.70;;;0.70;;
29280;SDS011;25048;49.590;11.026;2022-10-22T15:10:38;1.40;;;0.53;;
29280;SDS011;25048;49.590;11.026;2022-10-22T15:13:06;0.85;;;0.60;;
29280;SDS011;25048;49.590;11.026;2022-10-22T15:15:34;1.72;;;0.70;;
29280;SDS011;25048;49.590;11.026;2022-10-22T15:18:02;3.22;;;0.78;;
29280;SDS011;25048;49.590;11.026;2022-10-22T15:20:30;1.85;;;0.50;;
29280;SDS011;25048;49.590;11.026;2022-10-22T15:22:58;2.83;;;0.93;;
29280;SDS011;25048;49.590;11.026;2022-10-22T15:25:25;1.98;;;0.62;;
29280;SDS011;25048;49.590;11.026;2022-10-22T15:27:53;3.30;;;0.80;;
29280;SDS011;25048;49.590;11.026;2022-10-22T15:30:20;1.62;;;0.55;;
29280;SDS011;25048;49.590;11.026;2022-10-22T15:32:48;1.40;;;0.75;;
29280;SDS011;25048;49.590;11.026;2022-10-22T15:35:15;2.15;;;0.72;;
29280;SDS011;25048;49.590;11.026;2022-10-22T15:37:43;1.00;;;0.65;;
29280;SDS011;25048;49.590;11.026;2022-10-22T15:40:11;4.35;;;1.22;;
29280;SDS011;25048;49.590;11.026;2022-10-22T15:42:38;1.30;;;0.50;;
29280;SDS011;25048;49.590;11.026;2022-10-22T15:45:06;0.70;;;0.60;;
29280;SDS011;25048;49.590;11.026;2022-10-22T15:47:34;2.22;;;0.93;;
29280;SDS011;25048;49.590;11.026;2022-10-22T15:50:01;1.52;;;0.60;;
29280;SDS011;25048;49.590;11.026;2022-10-22T15:52:30;1.32;;;0.65;;
29280;SDS011;25048;49.590;11.026;2022-10-22T15:54:57;1.80;;;0.70;;
29280;SDS011;25048;49.590;11.026;2022-10-22T15:57:26;3.27;;;0.70;;
29280;SDS011;25048;49.590;11.026;2022-10-22T15:59:54;5.55;;;0.80;;
29280;SDS011;25048;49.590;11.026;2022-10-22T16:02:21;2.05;;;0.80;;
29280;SDS011;25048;49.590;11.026;2022-10-22T16:04:49;6.65;;;1.20;;
29280;SDS011;25048;49.590;11.026;2022-10-22T16:07:16;1.85;;;0.98;;
29280;SDS011;25048;49.590;11.026;2022-10-22T16:09:44;3.80;;;1.12;;
29280;SDS011;25048;49.590;11.026;2022-10-22T16:12:11;3.05;;;1.15;;
29280;SDS011;25048;49.590;11.026;2022-10-22T16:14:39;1.32;;;0.78;;
29280;SDS011;25048;49.590;11.026;2022-10-22T16:17:06;1.85;;;0.90;;
29280;SDS011;25048;49.590;11.026;2022-10-22T16:19:34;2.35;;;0.70;;
29280;SDS011;25048;49.590;11.026;2022-10-22T16:22:02;1.87;;;0.90;;